createdAt,value
2023-10-16T00:03:59.522Z,4.48
2023-10-16T00:09:32.723Z,4.51
2023-10-16T00:14:38.027Z,4.48
2023-10-16T00:19:46.069Z,4.50
2023-10-16T00:24:50.244Z,4.50
2023-10-16T00:29:54.349Z,4.50
2023-10-16T00:34:58.263Z,4.48
2023-10-16T00:40:09.591Z,4.44
2023-10-16T00:45:13.538Z,4.43
2023-10-16T00:50:17.554Z,4.39
2023-10-16T00:55:22.124Z,4.38
2023-10-16T01:00:27.247Z,4.36
2023-10-16T01:05:31.339Z,4.28
2023-10-16T01:10:42.589Z,4.22
2023-10-16T01:15:48.614Z,4.22
2023-10-16T01:20:54.667Z,4.10
2023-10-16T01:26:00.823Z,4.17
2023-10-16T01:31:06.959Z,4.04
2023-10-16T01:36:12.013Z,4.14
2023-10-16T01:41:17.125Z,4.05
2023-10-16T01:46:22.398Z,3.98
2023-10-16T01:51:29.342Z,3.95
2023-10-16T01:56:33.400Z,3.94
2023-10-16T02:01:37.384Z,4.02
2023-10-16T02:06:41.265Z,4.07
2023-10-16T02:11:45.281Z,4.11
2023-10-16T02:16:49.693Z,4.09
2023-10-16T02:21:55.744Z,4.11
2023-10-16T02:26:59.655Z,4.18
2023-10-16T02:32:06.098Z,4.28
2023-10-16T02:37:16.427Z,4.29
2023-10-16T02:42:21.375Z,4.37
2023-10-16T02:47:28.652Z,4.32
2023-10-16T02:52:32.716Z,4.29
2023-10-16T02:57:37.198Z,4.34
2023-10-16T03:02:41.903Z,4.39
2023-10-16T03:07:46.964Z,4.40
2023-10-16T03:12:54.893Z,4.50
2023-10-16T03:17:59.270Z,4.52
2023-10-16T03:23:08.203Z,4.38
2023-10-16T03:28:13.318Z,4.64
2023-10-16T03:33:17.585Z,4.72
2023-10-16T03:38:31.108Z,4.75
2023-10-16T03:43:35.987Z,4.78
2023-10-16T03:48:40.895Z,4.77
2023-10-16T03:53:46.199Z,4.83
2023-10-16T03:58:51.012Z,5.01
2023-10-16T04:03:59.270Z,5.11
2023-10-16T04:09:06.353Z,4.92
2023-10-16T04:14:16.636Z,4.98
2023-10-16T04:19:20.463Z,5.34
2023-10-16T04:24:30.816Z,5.39
2023-10-16T04:29:51.561Z,5.37
2023-10-16T04:34:56.103Z,5.30
2023-10-16T04:40:06.238Z,5.49
2023-10-16T04:45:16.735Z,5.72
2023-10-16T04:51:09.846Z,6.37
2023-10-16T04:56:17.918Z,6.87
2023-10-16T05:01:35.655Z,7.13
2023-10-16T05:06:39.572Z,7.10
2023-10-16T05:12:01.918Z,7.07
2023-10-16T05:17:11.831Z,7.01
2023-10-16T05:22:34.414Z,6.97
2023-10-16T05:27:56.893Z,6.94
2023-10-16T05:33:19.605Z,6.94
2023-10-16T05:38:42.397Z,7.05
2023-10-16T05:44:04.513Z,7.10
2023-10-16T05:49:26.716Z,7.17
2023-10-16T05:54:49.285Z,7.22
2023-10-16T06:00:11.696Z,7.39
2023-10-16T06:05:34.698Z,7.60
2023-10-16T06:10:57.129Z,7.78
2023-10-16T06:16:01.025Z,7.78
2023-10-16T06:21:05.181Z,7.80
2023-10-16T06:26:10.487Z,7.59
2023-10-16T06:31:15.282Z,7.96
2023-10-16T06:36:20.056Z,8.07
2023-10-16T06:41:25.153Z,8.07
2023-10-16T06:46:29.126Z,7.91
2023-10-16T06:51:33.253Z,7.89
2023-10-16T06:56:39.657Z,7.66
2023-10-16T07:01:44.226Z,7.93
2023-10-16T07:06:50.980Z,8.01
2023-10-16T07:11:56.816Z,7.99
2023-10-16T07:17:01.178Z,8.07
2023-10-16T07:22:12.595Z,8.10
2023-10-16T07:27:16.642Z,8.07
2023-10-16T07:32:21.631Z,7.99
2023-10-16T07:37:26.537Z,8.10
2023-10-16T07:42:31.586Z,8.12
2023-10-16T07:47:35.484Z,8.26
2023-10-16T07:52:39.270Z,8.37
2023-10-16T07:57:45.291Z,8.27
2023-10-16T08:02:49.169Z,8.28
2023-10-16T08:07:55.232Z,8.26
2023-10-16T08:12:59.161Z,8.16
2023-10-16T08:18:03.138Z,8.11
2023-10-16T08:23:08.110Z,7.80
2023-10-16T08:28:26.659Z,8.00
2023-10-16T08:33:33.631Z,7.97
2023-10-16T08:38:38.252Z,7.89
2023-10-16T08:43:56.595Z,7.91
2023-10-16T08:49:04.966Z,7.90
2023-10-16T08:54:29.487Z,7.94
2023-10-16T08:59:34.032Z,7.90
2023-10-16T09:04:38.808Z,7.79
2023-10-16T09:09:43.013Z,7.70
2023-10-16T09:14:46.886Z,7.58
2023-10-16T09:20:04.663Z,7.59
2023-10-16T09:25:12.447Z,7.54
2023-10-16T09:30:19.866Z,7.51
2023-10-16T09:35:34.574Z,7.41
2023-10-16T09:40:42.177Z,7.30
2023-10-16T09:45:49.496Z,7.24
2023-10-16T09:50:54.539Z,7.18
2023-10-16T09:56:04.092Z,7.11
2023-10-16T10:01:11.741Z,7.12
2023-10-16T10:06:23.059Z,7.18
2023-10-16T10:11:40.531Z,7.16
2023-10-16T10:16:49.104Z,7.12
2023-10-16T10:21:56.390Z,7.15
2023-10-16T10:27:04.236Z,7.15
2023-10-16T10:32:11.532Z,7.18
2023-10-16T10:37:43.757Z,7.15
2023-10-16T10:42:49.613Z,7.16
2023-10-16T10:47:57.066Z,7.19
2023-10-16T10:53:05.052Z,7.22
2023-10-16T10:58:15.165Z,7.24
2023-10-16T11:03:32.334Z,7.28
2023-10-16T11:08:37.173Z,7.28
2023-10-16T11:13:48.933Z,7.25
2023-10-16T11:19:01.188Z,7.22
2023-10-16T11:24:07.638Z,7.23
2023-10-16T11:29:14.132Z,7.18
2023-10-16T11:34:23.443Z,7.22
2023-10-16T11:39:28.886Z,7.21
2023-10-16T11:44:39.913Z,7.15
2023-10-16T11:49:56.279Z,7.12
2023-10-16T11:55:00.350Z,7.08
2023-10-16T12:00:17.949Z,7.07
2023-10-16T12:05:21.837Z,7.05
2023-10-16T12:10:30.602Z,7.06
2023-10-16T12:15:35.676Z,7.08
2023-10-16T12:20:39.865Z,6.88
2023-10-16T12:25:43.715Z,7.05
2023-10-16T12:30:48.021Z,7.08
2023-10-16T12:35:51.846Z,7.09
2023-10-16T12:40:57.634Z,7.06
2023-10-16T12:46:01.522Z,7.03
2023-10-16T12:51:12.115Z,7.02
2023-10-16T12:56:19.034Z,7.05
2023-10-16T13:01:23.514Z,7.08
2023-10-16T13:06:31.061Z,7.09
2023-10-16T13:11:36.051Z,7.08
2023-10-16T13:16:41.354Z,6.83
2023-10-16T13:21:48.130Z,7.11
2023-10-16T13:26:54.287Z,7.11
2023-10-16T13:32:02.560Z,7.08
2023-10-16T13:37:12.557Z,7.05
2023-10-16T13:42:18.536Z,7.10
2023-10-16T13:47:22.446Z,7.13
2023-10-16T13:52:26.478Z,7.12
2023-10-16T13:57:31.191Z,7.09
2023-10-16T14:02:38.655Z,7.08
2023-10-16T14:07:45.818Z,7.07
2023-10-16T14:13:00.869Z,7.10
2023-10-16T14:18:05.346Z,6.91
2023-10-16T14:23:12.919Z,7.16
2023-10-16T14:28:45.856Z,7.20
2023-10-16T14:33:53.366Z,7.21
2023-10-16T14:38:58.895Z,7.19
2023-10-16T14:44:17.004Z,7.25
2023-10-16T14:49:28.620Z,7.20
2023-10-16T14:54:33.801Z,7.25
2023-10-16T14:59:39.507Z,7.23
2023-10-16T15:04:45.960Z,7.30
2023-10-16T15:09:51.043Z,7.31
2023-10-16T15:14:55.121Z,7.34
2023-10-16T15:19:59.719Z,7.07
2023-10-16T15:25:04.846Z,7.32
2023-10-16T15:30:12.093Z,7.31
2023-10-16T15:35:17.548Z,7.29
2023-10-16T15:40:22.029Z,7.29
2023-10-16T15:45:28.049Z,7.31
2023-10-16T15:50:33.079Z,7.34
2023-10-16T15:55:38.626Z,7.36
2023-10-16T16:00:46.800Z,7.32
2023-10-16T16:05:53.512Z,7.40
2023-10-16T16:10:57.669Z,7.47
2023-10-16T16:16:07.480Z,7.43
2023-10-16T16:21:15.233Z,7.48
2023-10-16T16:26:19.216Z,7.50
2023-10-16T16:31:23.761Z,7.56
2023-10-16T16:36:29.841Z,7.59
2023-10-16T16:41:36.081Z,7.63
2023-10-16T16:46:40.314Z,7.36
2023-10-16T16:51:45.107Z,7.54
2023-10-16T16:56:49.430Z,7.52
2023-10-16T17:01:56.675Z,7.51
2023-10-16T17:07:06.136Z,7.48
2023-10-16T17:12:10.887Z,7.41
2023-10-16T17:17:14.926Z,7.23
2023-10-16T17:22:19.101Z,7.09
2023-10-16T17:27:23.126Z,6.96
2023-10-16T17:32:27.196Z,6.88
2023-10-16T17:37:31.621Z,6.79
2023-10-16T17:42:36.149Z,6.68
2023-10-16T17:47:40.336Z,6.51
2023-10-16T17:52:48.946Z,6.49
2023-10-16T17:57:52.773Z,6.35
2023-10-16T18:02:58.330Z,6.33
2023-10-16T18:08:11.151Z,6.29
2023-10-16T18:13:17.471Z,6.11
2023-10-16T18:18:22.400Z,6.24
2023-10-16T18:23:26.868Z,6.22
2023-10-16T18:28:30.723Z,6.19
2023-10-16T18:33:34.854Z,6.17
2023-10-16T18:38:39.727Z,6.18
2023-10-16T18:43:43.748Z,6.14
2023-10-16T18:48:47.760Z,6.12
2023-10-16T18:53:52.330Z,6.13
2023-10-16T18:58:57.375Z,6.19
2023-10-16T19:04:02.722Z,6.19
2023-10-16T19:09:06.832Z,5.91
2023-10-16T19:14:10.640Z,6.22
2023-10-16T19:19:14.644Z,6.22
2023-10-16T19:24:21.706Z,6.26
2023-10-16T19:29:25.846Z,6.29
2023-10-16T19:34:31.081Z,6.29
2023-10-16T19:39:35.841Z,6.33
2023-10-16T19:44:39.914Z,6.36
2023-10-16T19:49:44.148Z,6.13
2023-10-16T19:54:49.378Z,6.42
2023-10-16T19:59:53.198Z,6.42
2023-10-16T20:04:57.295Z,6.44
2023-10-16T20:10:01.175Z,6.43
2023-10-16T20:15:07.429Z,6.45
2023-10-16T20:20:26.625Z,6.46
2023-10-16T20:25:38.502Z,6.46
2023-10-16T20:30:44.331Z,6.45
2023-10-16T20:35:49.220Z,6.44
2023-10-16T20:40:53.174Z,6.51
2023-10-16T20:45:57.220Z,6.50
2023-10-16T20:51:01.097Z,6.54
2023-10-16T20:56:08.291Z,6.58
2023-10-16T21:01:17.179Z,6.59
2023-10-16T21:06:21.072Z,6.58
2023-10-16T21:11:25.140Z,6.58
2023-10-16T21:16:29.155Z,6.59
2023-10-16T21:21:34.253Z,6.70
2023-10-16T21:26:38.195Z,6.76
2023-10-16T21:31:42.355Z,6.81
2023-10-16T21:36:46.512Z,6.85
2023-10-16T21:41:51.764Z,6.89
2023-10-16T21:46:55.621Z,6.88
2023-10-16T21:51:59.468Z,6.93
2023-10-16T21:57:04.053Z,6.98
2023-10-16T22:02:09.504Z,7.01
2023-10-16T22:07:14.753Z,7.05
2023-10-16T22:12:19.468Z,7.11
2023-10-16T22:17:24.729Z,7.12
2023-10-16T22:22:28.905Z,7.14
2023-10-16T22:27:33.921Z,7.16
2023-10-16T22:32:38.083Z,7.18
2023-10-16T22:37:42.628Z,7.20
2023-10-16T22:42:46.656Z,7.21
2023-10-16T22:47:53.375Z,7.19
2023-10-16T22:52:57.410Z,7.24
2023-10-16T22:58:01.267Z,7.22
2023-10-16T23:03:06.402Z,7.24
2023-10-16T23:08:10.618Z,7.23
2023-10-16T23:13:14.586Z,7.26
2023-10-16T23:18:20.986Z,7.28
2023-10-16T23:23:24.850Z,7.30
2023-10-16T23:28:32.086Z,7.33
2023-10-16T23:33:41.875Z,7.32
2023-10-16T23:38:45.749Z,7.35
2023-10-16T23:43:53.646Z,7.38
2023-10-16T23:49:10.088Z,7.34
2023-10-16T23:54:32.690Z,7.41
2023-10-16T23:59:36.458Z,7.45
